createdAt,value
2023-05-18T00:02:48.273Z,10.95
2023-05-18T00:07:51.186Z,10.92
2023-05-18T00:12:53.772Z,10.88
2023-05-18T00:17:58.566Z,10.75
2023-05-18T00:23:02.289Z,10.78
2023-05-18T00:28:05.599Z,10.74
2023-05-18T00:33:09.614Z,10.68
2023-05-18T00:38:12.933Z,10.59
2023-05-18T00:43:15.551Z,10.53
2023-05-18T00:48:19.843Z,10.60
2023-05-18T00:53:22.748Z,10.54
2023-05-18T00:58:26.576Z,10.50
2023-05-18T01:03:31.076Z,10.44
2023-05-18T01:08:37.689Z,9.83
2023-05-18T01:13:52.126Z,10.12
2023-05-18T01:19:05.532Z,10.22
2023-05-18T01:24:25.631Z,9.00
2023-05-18T01:29:31.143Z,10.06
2023-05-18T01:34:33.917Z,9.93
2023-05-18T01:39:38.844Z,9.82
2023-05-18T01:44:46.550Z,8.73
2023-05-18T01:49:55.521Z,9.64
2023-05-18T01:55:08.811Z,9.63
2023-05-18T02:00:14.213Z,9.46
2023-05-18T02:05:20.255Z,9.34
2023-05-18T02:10:24.212Z,9.55
2023-05-18T02:15:29.286Z,9.49
2023-05-18T02:20:33.581Z,9.35
2023-05-18T02:25:37.152Z,9.20
2023-05-18T02:30:41.268Z,8.46
2023-05-18T02:35:44.589Z,8.98
2023-05-18T02:40:48.052Z,8.11
2023-05-18T02:45:54.669Z,7.98
2023-05-18T02:50:58.779Z,9.55
2023-05-18T02:56:03.798Z,8.88
2023-05-18T03:01:18.053Z,8.36
2023-05-18T03:06:34.404Z,8.16
2023-05-18T03:11:44.698Z,9.38
2023-05-18T03:16:54.283Z,7.48
2023-05-18T03:21:59.460Z,9.42
2023-05-18T03:27:13.107Z,9.28
2023-05-18T03:32:17.629Z,9.26
2023-05-18T03:37:21.091Z,9.27
2023-05-18T03:42:24.219Z,8.88
2023-05-18T03:47:29.844Z,9.30
2023-05-18T03:52:34.104Z,8.88
2023-05-18T03:57:39.977Z,8.11
2023-05-18T04:02:44.864Z,7.54
2023-05-18T04:07:51.497Z,7.11
2023-05-18T04:12:54.230Z,9.16
2023-05-18T04:18:03.680Z,9.41
2023-05-18T04:23:06.476Z,9.12
2023-05-18T04:28:10.802Z,8.53
2023-05-18T04:33:27.431Z,7.68
2023-05-18T04:38:32.717Z,9.54
2023-05-18T04:43:36.487Z,9.45
2023-05-18T04:48:41.224Z,9.20
2023-05-18T04:53:46.106Z,9.44
2023-05-18T04:58:49.549Z,8.86
2023-05-18T05:08:58.978Z,9.86
2023-05-18T05:14:02.654Z,9.44
2023-05-18T05:19:12.888Z,9.98
2023-05-18T05:24:25.704Z,8.04
2023-05-18T05:29:33.479Z,9.64
2023-05-18T05:34:41.055Z,8.34
2023-05-18T05:39:44.139Z,10.01
2023-05-18T05:44:47.411Z,8.45
2023-05-18T05:49:51.748Z,9.19
2023-05-18T05:54:56.515Z,10.05
2023-05-18T06:00:00.096Z,10.51
2023-05-18T06:05:07.383Z,10.64
2023-05-18T06:10:10.781Z,10.68
2023-05-18T06:15:16.003Z,10.39
2023-05-18T06:20:23.909Z,10.32
2023-05-18T06:25:32.347Z,10.89
2023-05-18T06:30:43.645Z,11.10
2023-05-18T06:36:20.356Z,11.25
2023-05-18T06:41:23.285Z,11.12
2023-05-18T06:46:27.030Z,11.18
2023-05-18T06:51:40.330Z,11.55
2023-05-18T06:56:43.275Z,11.54
2023-05-18T07:01:47.771Z,11.71
2023-05-18T07:06:53.642Z,11.85
2023-05-18T07:12:09.980Z,11.87
2023-05-18T07:17:12.718Z,12.01
2023-05-18T07:22:16.762Z,11.56
2023-05-18T07:27:22.979Z,12.12
2023-05-18T07:32:25.773Z,12.15
2023-05-18T07:37:29.841Z,12.41
2023-05-18T07:42:33.862Z,12.60
2023-05-18T07:47:37.211Z,12.15
2023-05-18T07:52:44.971Z,12.65
2023-05-18T07:57:47.699Z,12.09
2023-05-18T08:02:50.610Z,12.72
2023-05-18T08:07:57.560Z,12.92
2023-05-18T08:13:01.608Z,12.61
2023-05-18T08:18:04.546Z,13.06
2023-05-18T08:23:11.770Z,12.73
2023-05-18T08:28:17.811Z,13.04
2023-05-18T08:33:23.285Z,13.01
2023-05-18T08:38:31.610Z,13.01
2023-05-18T08:43:46.857Z,12.62
2023-05-18T08:55:02.586Z,13.71
2023-05-18T09:00:12.135Z,13.92
2023-05-18T09:05:16.639Z,13.67
2023-05-18T09:10:25.216Z,13.71
2023-05-18T09:15:28.074Z,13.76
2023-05-18T09:20:31.508Z,14.01
2023-05-18T09:25:44.625Z,14.18
2023-05-18T09:30:48.132Z,14.26
2023-05-18T09:35:51.965Z,14.28
2023-05-18T09:40:56.236Z,14.32
2023-05-18T09:46:08.144Z,14.34
2023-05-18T09:51:17.254Z,14.22
2023-05-18T09:56:21.589Z,14.27
2023-05-18T10:01:24.564Z,14.34
2023-05-18T10:06:28.461Z,14.77
2023-05-18T10:11:34.404Z,14.77
2023-05-18T10:16:37.167Z,14.90
2023-05-18T10:21:41.677Z,14.66
2023-05-18T10:26:51.146Z,14.57
2023-05-18T10:32:05.171Z,14.95
2023-05-18T10:37:12.134Z,14.96
2023-05-18T10:42:20.582Z,14.85
2023-05-18T10:47:25.831Z,14.91
2023-05-18T10:52:32.373Z,14.68
2023-05-18T10:57:40.749Z,15.11
2023-05-18T11:02:44.168Z,15.29
2023-05-18T11:07:50.517Z,15.45
2023-05-18T11:12:55.321Z,15.72
2023-05-18T11:18:17.493Z,15.68
2023-05-18T11:23:26.692Z,14.99
2023-05-18T11:28:31.537Z,15.98
2023-05-18T11:33:39.036Z,16.28
2023-05-18T11:38:54.042Z,16.33
2023-05-18T11:44:20.988Z,16.60
2023-05-18T11:49:26.258Z,16.65
2023-05-18T11:54:30.216Z,16.82
2023-05-18T11:59:41.176Z,17.03
2023-05-18T12:04:46.633Z,17.14
2023-05-18T12:09:49.733Z,17.35
2023-05-18T12:14:56.841Z,17.52
2023-05-18T12:19:59.530Z,17.58
2023-05-18T12:25:02.334Z,17.93
2023-05-18T12:30:07.679Z,18.11
2023-05-18T12:35:18.089Z,18.30
2023-05-18T12:40:21.379Z,18.28
2023-05-18T12:45:29.022Z,18.72
2023-05-18T12:50:32.488Z,18.80
2023-05-18T12:55:50.124Z,19.21
2023-05-18T13:00:55.948Z,19.34
2023-05-18T13:06:06.308Z,19.27
2023-05-18T13:11:14.607Z,19.85
2023-05-18T13:16:19.145Z,19.95
2023-05-18T13:21:29.242Z,20.37
2023-05-18T13:26:32.880Z,20.61
2023-05-18T13:31:39.792Z,21.24
2023-05-18T13:36:42.502Z,21.50
2023-05-18T13:41:45.420Z,21.74
2023-05-18T13:46:57.935Z,22.26
2023-05-18T13:52:01.055Z,22.54
2023-05-18T13:57:03.757Z,22.61
2023-05-18T14:02:10.701Z,22.53
2023-05-18T14:07:16.373Z,22.74
2023-05-18T14:12:21.290Z,22.74
2023-05-18T14:17:25.284Z,22.71
2023-05-18T14:22:28.217Z,22.45
2023-05-18T14:27:31.516Z,22.44
2023-05-18T14:32:38.012Z,21.67
2023-05-18T14:37:40.869Z,21.41
2023-05-18T14:42:45.517Z,21.07
2023-05-18T14:47:51.252Z,20.74
2023-05-18T14:52:54.885Z,20.11
2023-05-18T14:58:02.229Z,19.81
2023-05-18T15:03:06.560Z,19.59
2023-05-18T15:08:09.398Z,19.56
2023-05-18T15:13:16.360Z,18.93
2023-05-18T15:18:20.513Z,19.33
2023-05-18T15:23:23.116Z,18.83
2023-05-18T15:28:25.851Z,18.98
2023-05-18T15:33:29.869Z,18.80
2023-05-18T15:38:32.546Z,18.70
2023-05-18T15:43:36.796Z,18.44
2023-05-18T15:48:40.800Z,18.76
2023-05-18T15:53:43.472Z,18.72
2023-05-18T15:58:46.293Z,18.56
2023-05-18T16:03:50.605Z,18.44
2023-05-18T16:08:53.764Z,18.41
2023-05-18T16:13:57.196Z,18.34
2023-05-18T16:19:02.313Z,18.33
2023-05-18T16:24:06.511Z,18.12
2023-05-18T16:29:14.775Z,17.96
2023-05-18T16:34:23.674Z,16.86
2023-05-18T16:39:27.250Z,17.98
2023-05-18T16:44:31.431Z,17.72
2023-05-18T16:49:35.535Z,17.78
2023-05-18T16:54:38.695Z,17.69
2023-05-18T16:59:41.755Z,16.99
2023-05-18T17:04:55.545Z,17.25
2023-05-18T17:10:01.646Z,16.47
2023-05-18T17:15:05.591Z,17.38
2023-05-18T17:20:12.005Z,17.28
2023-05-18T17:25:16.065Z,16.97
2023-05-18T17:30:18.973Z,17.20
2023-05-18T17:35:52.223Z,17.14
2023-05-18T17:40:55.222Z,17.10
2023-05-18T17:46:01.775Z,16.93
2023-05-18T17:51:08.608Z,16.02
2023-05-18T17:56:12.171Z,16.64
2023-05-18T18:01:15.169Z,16.80
2023-05-18T18:06:22.466Z,16.74
2023-05-18T18:11:28.232Z,16.65
2023-05-18T18:16:34.459Z,16.30
2023-05-18T18:21:38.848Z,16.36
2023-05-18T18:26:41.843Z,16.49
2023-05-18T18:31:44.663Z,16.26
2023-05-18T18:36:49.958Z,15.96
2023-05-18T18:41:52.676Z,16.21
2023-05-18T18:46:55.547Z,15.57
2023-05-18T18:51:59.765Z,16.00
2023-05-18T18:57:02.935Z,15.51
2023-05-18T19:02:05.881Z,15.86
2023-05-18T19:07:13.754Z,15.26
2023-05-18T19:12:16.442Z,15.55
2023-05-18T19:17:20.244Z,15.18
2023-05-18T19:22:24.501Z,15.03
2023-05-18T19:27:29.855Z,15.26
2023-05-18T19:32:32.942Z,15.20
2023-05-18T19:37:37.063Z,15.15
2023-05-18T19:42:43.587Z,15.19
2023-05-18T19:47:46.358Z,15.13
2023-05-18T19:52:50.655Z,14.60
2023-05-18T19:57:54.506Z,14.81
2023-05-18T20:02:58.794Z,14.92
2023-05-18T20:08:10.107Z,14.74
2023-05-18T20:13:13.104Z,14.72
2023-05-18T20:18:21.723Z,14.12
2023-05-18T20:23:25.962Z,14.50
2023-05-18T20:28:31.378Z,14.37
2023-05-18T20:33:34.436Z,14.24
2023-05-18T20:38:41.669Z,13.77
2023-05-18T20:43:45.300Z,14.15
2023-05-18T20:48:48.167Z,13.74
2023-05-18T20:53:59.604Z,13.84
2023-05-18T20:59:04.181Z,13.29
2023-05-18T21:04:17.915Z,12.34
2023-05-18T21:09:23.818Z,13.88
2023-05-18T21:14:27.134Z,12.20
2023-05-18T21:19:32.821Z,13.23
2023-05-18T21:24:39.469Z,13.66
2023-05-18T21:29:42.594Z,12.74
2023-05-18T21:34:48.917Z,12.32
2023-05-18T21:46:44.029Z,13.58
2023-05-18T21:51:48.861Z,13.26
2023-05-18T21:56:55.800Z,12.03
2023-05-18T22:02:02.161Z,13.35
2023-05-18T22:07:05.451Z,13.38
2023-05-18T22:12:08.768Z,12.98
2023-05-18T22:17:16.575Z,13.06
2023-05-18T22:22:29.865Z,11.85
2023-05-18T22:27:38.070Z,12.35
2023-05-18T22:32:47.516Z,12.82
2023-05-18T22:37:50.672Z,12.59
2023-05-18T22:42:54.887Z,11.10
2023-05-18T22:48:03.315Z,12.92
2023-05-18T22:53:06.168Z,11.02
2023-05-18T22:58:08.986Z,12.51
2023-05-18T23:03:13.333Z,11.38
2023-05-18T23:08:21.233Z,12.15
2023-05-18T23:13:24.039Z,12.52
2023-05-18T23:18:31.011Z,10.63
2023-05-18T23:23:33.913Z,12.32
2023-05-18T23:28:39.690Z,11.96
2023-05-18T23:33:46.951Z,10.52
2023-05-18T23:38:59.706Z,11.89
2023-05-18T23:44:05.668Z,10.86
2023-05-18T23:49:11.774Z,11.64
2023-05-18T23:54:17.685Z,11.61
2023-05-18T23:59:21.123Z,10.22
